sensor_id;sensor_type;location;lat;lon;timestamp;P1;durP1;ratioP1;P2;durP2;ratioP2
22435;SDS011;11385;50.822;4.324;2023-04-16T00:00:32;14.18;;;4.35;;
22435;SDS011;11385;50.822;4.324;2023-04-16T00:02:59;12.88;;;4.40;;
22435;SDS011;11385;50.822;4.324;2023-04-16T00:05:25;14.83;;;4.10;;
22435;SDS011;11385;50.822;4.324;2023-04-16T00:07:53;11.15;;;4.28;;
22435;SDS011;11385;50.822;4.324;2023-04-16T00:10:19;14.00;;;4.53;;
22435;SDS011;11385;50.822;4.324;2023-04-16T00:12:46;10.68;;;4.62;;
22435;SDS011;11385;50.822;4.324;2023-04-16T00:15:14;10.23;;;4.28;;
22435;SDS011;11385;50.822;4.324;2023-04-16T00:17:41;17.62;;;5.30;;
22435;SDS011;11385;50.822;4.324;2023-04-16T00:20:08;11.97;;;5.30;;
22435;SDS011;11385;50.822;4.324;2023-04-16T00:22:37;10.13;;;4.83;;
22435;SDS011;11385;50.822;4.324;2023-04-16T00:25:04;9.75;;;5.35;;
22435;SDS011;11385;50.822;4.324;2023-04-16T00:27:32;11.45;;;5.65;;
22435;SDS011;11385;50.822;4.324;2023-04-16T00:30:00;10.88;;;5.70;;
22435;SDS011;11385;50.822;4.324;2023-04-16T00:32:27;12.00;;;5.30;;
22435;SDS011;11385;50.822;4.324;2023-04-16T00:34:54;11.43;;;5.62;;
22435;SDS011;11385;50.822;4.324;2023-04-16T00:37:21;12.15;;;6.20;;
22435;SDS011;11385;50.822;4.324;2023-04-16T00:39:48;11.30;;;5.30;;
22435;SDS011;11385;50.822;4.324;2023-04-16T00:42:15;12.37;;;5.53;;
22435;SDS011;11385;50.822;4.324;2023-04-16T00:44:43;14.78;;;5.78;;
22435;SDS011;11385;50.822;4.324;2023-04-16T00:47:12;9.20;;;4.80;;
22435;SDS011;11385;50.822;4.324;2023-04-16T00:49:40;19.10;;;8.63;;
22435;SDS011;11385;50.822;4.324;2023-04-16T00:52:07;14.60;;;5.30;;
22435;SDS011;11385;50.822;4.324;2023-04-16T00:54:35;8.73;;;3.20;;
22435;SDS011;11385;50.822;4.324;2023-04-16T00:57:04;6.92;;;3.00;;
22435;SDS011;11385;50.822;4.324;2023-04-16T00:59:32;9.35;;;2.87;;
22435;SDS011;11385;50.822;4.324;2023-04-16T01:02:03;9.88;;;2.30;;
22435;SDS011;11385;50.822;4.324;2023-04-16T01:04:30;6.70;;;2.20;;
22435;SDS011;11385;50.822;4.324;2023-04-16T01:06:58;5.22;;;2.12;;
22435;SDS011;11385;50.822;4.324;2023-04-16T01:09:25;9.35;;;3.00;;
22435;SDS011;11385;50.822;4.324;2023-04-16T01:11:52;9.08;;;3.05;;
22435;SDS011;11385;50.822;4.324;2023-04-16T01:14:21;9.83;;;2.42;;
22435;SDS011;11385;50.822;4.324;2023-04-16T01:16:48;7.17;;;2.80;;
22435;SDS011;11385;50.822;4.324;2023-04-16T01:19:15;10.53;;;2.70;;
22435;SDS011;11385;50.822;4.324;2023-04-16T01:21:43;9.40;;;2.85;;
22435;SDS011;11385;50.822;4.324;2023-04-16T01:24:11;9.55;;;2.47;;
22435;SDS011;11385;50.822;4.324;2023-04-16T01:26:41;7.12;;;2.58;;
22435;SDS011;11385;50.822;4.324;2023-04-16T01:29:08;11.15;;;2.83;;
22435;SDS011;11385;50.822;4.324;2023-04-16T01:31:35;7.33;;;2.45;;
22435;SDS011;11385;50.822;4.324;2023-04-16T01:34:02;6.67;;;3.00;;
22435;SDS011;11385;50.822;4.324;2023-04-16T01:36:29;8.15;;;2.85;;
22435;SDS011;11385;50.822;4.324;2023-04-16T01:38:56;7.78;;;2.87;;
22435;SDS011;11385;50.822;4.324;2023-04-16T01:41:23;9.75;;;3.40;;
22435;SDS011;11385;50.822;4.324;2023-04-16T01:43:49;9.03;;;3.27;;
22435;SDS011;11385;50.822;4.324;2023-04-16T01:46:17;8.68;;;3.25;;
22435;SDS011;11385;50.822;4.324;2023-04-16T01:48:47;7.92;;;3.10;;
22435;SDS011;11385;50.822;4.324;2023-04-16T01:51:14;4.75;;;2.42;;
22435;SDS011;11385;50.822;4.324;2023-04-16T01:53:41;5.33;;;2.50;;
22435;SDS011;11385;50.822;4.324;2023-04-16T01:56:08;8.18;;;2.72;;
22435;SDS011;11385;50.822;4.324;2023-04-16T01:58:35;4.83;;;2.58;;
22435;SDS011;11385;50.822;4.324;2023-04-16T02:01:02;7.83;;;2.85;;
22435;SDS011;11385;50.822;4.324;2023-04-16T02:03:33;12.17;;;3.40;;
22435;SDS011;11385;50.822;4.324;2023-04-16T02:06:02;6.40;;;2.60;;
22435;SDS011;11385;50.822;4.324;2023-04-16T02:08:28;7.95;;;3.02;;
22435;SDS011;11385;50.822;4.324;2023-04-16T02:10:55;6.97;;;2.85;;
22435;SDS011;11385;50.822;4.324;2023-04-16T02:13:23;5.55;;;2.85;;
22435;SDS011;11385;50.822;4.324;2023-04-16T02:15:59;6.58;;;3.08;;
22435;SDS011;11385;50.822;4.324;2023-04-16T02:18:27;5.65;;;1.85;;
22435;SDS011;11385;50.822;4.324;2023-04-16T02:20:53;5.50;;;1.95;;
22435;SDS011;11385;50.822;4.324;2023-04-16T02:23:23;7.25;;;2.22;;
22435;SDS011;11385;50.822;4.324;2023-04-16T02:25:50;7.22;;;2.00;;
22435;SDS011;11385;50.822;4.324;2023-04-16T02:28:17;6.00;;;1.80;;
22435;SDS011;11385;50.822;4.324;2023-04-16T02:30:43;5.55;;;2.30;;
22435;SDS011;11385;50.822;4.324;2023-04-16T02:33:10;7.70;;;2.42;;
22435;SDS011;11385;50.822;4.324;2023-04-16T02:35:38;6.40;;;2.30;;
22435;SDS011;11385;50.822;4.324;2023-04-16T02:38:05;4.70;;;2.35;;
22435;SDS011;11385;50.822;4.324;2023-04-16T02:40:33;4.50;;;2.25;;
22435;SDS011;11385;50.822;4.324;2023-04-16T02:43:01;6.65;;;1.90;;
22435;SDS011;11385;50.822;4.324;2023-04-16T02:45:28;6.85;;;2.12;;
22435;SDS011;11385;50.822;4.324;2023-04-16T02:47:56;5.95;;;2.47;;
22435;SDS011;11385;50.822;4.324;2023-04-16T02:50:22;7.20;;;3.15;;
22435;SDS011;11385;50.822;4.324;2023-04-16T02:52:50;7.72;;;2.50;;
22435;SDS011;11385;50.822;4.324;2023-04-16T02:55:18;7.60;;;2.70;;
22435;SDS011;11385;50.822;4.324;2023-04-16T02:57:45;7.12;;;2.98;;
22435;SDS011;11385;50.822;4.324;2023-04-16T03:00:11;5.37;;;2.12;;
22435;SDS011;11385;50.822;4.324;2023-04-16T03:02:38;7.58;;;2.27;;
22435;SDS011;11385;50.822;4.324;2023-04-16T03:05:09;8.53;;;2.50;;
22435;SDS011;11385;50.822;4.324;2023-04-16T03:07:38;7.78;;;2.40;;
22435;SDS011;11385;50.822;4.324;2023-04-16T03:10:06;5.47;;;2.12;;
22435;SDS011;11385;50.822;4.324;2023-04-16T03:12:34;13.08;;;2.55;;
22435;SDS011;11385;50.822;4.324;2023-04-16T03:15:04;5.80;;;1.80;;
22435;SDS011;11385;50.822;4.324;2023-04-16T03:17:33;6.67;;;2.12;;
22435;SDS011;11385;50.822;4.324;2023-04-16T03:20:01;8.10;;;2.17;;
22435;SDS011;11385;50.822;4.324;2023-04-16T03:22:27;6.37;;;1.90;;
22435;SDS011;11385;50.822;4.324;2023-04-16T03:24:54;7.65;;;2.02;;
22435;SDS011;11385;50.822;4.324;2023-04-16T03:27:20;4.95;;;1.80;;
22435;SDS011;11385;50.822;4.324;2023-04-16T03:29:49;7.80;;;1.55;;
22435;SDS011;11385;50.822;4.324;2023-04-16T03:32:15;6.95;;;1.85;;
22435;SDS011;11385;50.822;4.324;2023-04-16T03:34:42;7.78;;;1.72;;
22435;SDS011;11385;50.822;4.324;2023-04-16T03:37:09;4.15;;;1.50;;
22435;SDS011;11385;50.822;4.324;2023-04-16T03:39:37;7.30;;;1.90;;
22435;SDS011;11385;50.822;4.324;2023-04-16T03:42:05;10.40;;;2.35;;
22435;SDS011;11385;50.822;4.324;2023-04-16T03:44:31;6.10;;;1.57;;
22435;SDS011;11385;50.822;4.324;2023-04-16T03:46:59;5.30;;;1.50;;
22435;SDS011;11385;50.822;4.324;2023-04-16T03:49:27;7.20;;;2.00;;
22435;SDS011;11385;50.822;4.324;2023-04-16T03:51:54;8.08;;;1.47;;
22435;SDS011;11385;50.822;4.324;2023-04-16T03:54:21;7.45;;;2.10;;
22435;SDS011;11385;50.822;4.324;2023-04-16T03:56:49;6.72;;;2.30;;
22435;SDS011;11385;50.822;4.324;2023-04-16T03:59:16;9.55;;;1.87;;
22435;SDS011;11385;50.822;4.324;2023-04-16T04:01:44;8.53;;;1.90;;
22435;SDS011;11385;50.822;4.324;2023-04-16T04:04:11;12.68;;;2.20;;
22435;SDS011;11385;50.822;4.324;2023-04-16T04:06:38;7.40;;;1.90;;
22435;SDS011;11385;50.822;4.324;2023-04-16T04:09:06;6.80;;;2.15;;
22435;SDS011;11385;50.822;4.324;2023-04-16T04:11:34;7.28;;;2.37;;
22435;SDS011;11385;50.822;4.324;2023-04-16T04:14:00;6.87;;;1.70;;
22435;SDS011;11385;50.822;4.324;2023-04-16T04:16:27;7.25;;;2.00;;
22435;SDS011;11385;50.822;4.324;2023-04-16T04:18:54;4.30;;;1.70;;
22435;SDS011;11385;50.822;4.324;2023-04-16T04:21:21;6.28;;;1.92;;
22435;SDS011;11385;50.822;4.324;2023-04-16T04:23:47;6.47;;;2.10;;
22435;SDS011;11385;50.822;4.324;2023-04-16T04:26:14;4.53;;;1.80;;
22435;SDS011;11385;50.822;4.324;2023-04-16T04:28:41;5.90;;;1.98;;
22435;SDS011;11385;50.822;4.324;2023-04-16T04:36:36;8.55;;;2.20;;
22435;SDS011;11385;50.822;4.324;2023-04-16T04:39:03;8.28;;;2.58;;
22435;SDS011;11385;50.822;4.324;2023-04-16T04:41:30;9.60;;;2.35;;
22435;SDS011;11385;50.822;4.324;2023-04-16T04:43:57;8.25;;;2.67;;
22435;SDS011;11385;50.822;4.324;2023-04-16T04:46:25;8.00;;;2.10;;
22435;SDS011;11385;50.822;4.324;2023-04-16T04:48:55;5.60;;;2.00;;
22435;SDS011;11385;50.822;4.324;2023-04-16T04:51:22;8.10;;;2.67;;
22435;SDS011;11385;50.822;4.324;2023-04-16T04:53:49;7.20;;;2.33;;
22435;SDS011;11385;50.822;4.324;2023-04-16T04:56:15;8.03;;;2.12;;
22435;SDS011;11385;50.822;4.324;2023-04-16T04:58:44;8.45;;;2.33;;
22435;SDS011;11385;50.822;4.324;2023-04-16T05:01:11;8.80;;;2.37;;
22435;SDS011;11385;50.822;4.324;2023-04-16T05:03:38;7.35;;;2.27;;
22435;SDS011;11385;50.822;4.324;2023-04-16T05:06:05;5.35;;;2.37;;
22435;SDS011;11385;50.822;4.324;2023-04-16T05:08:32;10.15;;;2.15;;
22435;SDS011;11385;50.822;4.324;2023-04-16T05:10:59;8.45;;;2.27;;
22435;SDS011;11385;50.822;4.324;2023-04-16T05:13:26;9.08;;;1.67;;
22435;SDS011;11385;50.822;4.324;2023-04-16T05:15:53;10.48;;;3.08;;
22435;SDS011;11385;50.822;4.324;2023-04-16T05:18:21;8.78;;;1.50;;
22435;SDS011;11385;50.822;4.324;2023-04-16T05:20:48;12.88;;;2.30;;
22435;SDS011;11385;50.822;4.324;2023-04-16T05:23:14;8.55;;;2.30;;
22435;SDS011;11385;50.822;4.324;2023-04-16T05:25:41;6.60;;;1.92;;
22435;SDS011;11385;50.822;4.324;2023-04-16T05:28:08;5.35;;;1.80;;
22435;SDS011;11385;50.822;4.324;2023-04-16T05:30:35;6.95;;;1.87;;
22435;SDS011;11385;50.822;4.324;2023-04-16T05:33:02;6.33;;;1.87;;
22435;SDS011;11385;50.822;4.324;2023-04-16T05:35:29;7.37;;;1.80;;
22435;SDS011;11385;50.822;4.324;2023-04-16T05:37:55;5.72;;;1.92;;
22435;SDS011;11385;50.822;4.324;2023-04-16T05:43:10;6.30;;;1.80;;
22435;SDS011;11385;50.822;4.324;2023-04-16T05:45:40;4.62;;;2.00;;
22435;SDS011;11385;50.822;4.324;2023-04-16T05:48:07;10.78;;;2.35;;
22435;SDS011;11385;50.822;4.324;2023-04-16T05:50:34;10.88;;;1.98;;
22435;SDS011;11385;50.822;4.324;2023-04-16T05:53:04;5.05;;;1.27;;
22435;SDS011;11385;50.822;4.324;2023-04-16T05:55:32;8.18;;;2.02;;
22435;SDS011;11385;50.822;4.324;2023-04-16T05:58:02;10.10;;;2.27;;
22435;SDS011;11385;50.822;4.324;2023-04-16T06:00:31;8.38;;;1.80;;
22435;SDS011;11385;50.822;4.324;2023-04-16T06:03:00;6.87;;;2.15;;
22435;SDS011;11385;50.822;4.324;2023-04-16T06:05:28;7.60;;;2.47;;
22435;SDS011;11385;50.822;4.324;2023-04-16T06:07:55;6.65;;;1.77;;
22435;SDS011;11385;50.822;4.324;2023-04-16T06:10:21;9.93;;;2.37;;
22435;SDS011;11385;50.822;4.324;2023-04-16T06:12:49;4.67;;;1.62;;
22435;SDS011;11385;50.822;4.324;2023-04-16T06:15:15;8.80;;;1.80;;
22435;SDS011;11385;50.822;4.324;2023-04-16T06:17:42;8.00;;;1.90;;
22435;SDS011;11385;50.822;4.324;2023-04-16T06:20:10;7.25;;;1.80;;
22435;SDS011;11385;50.822;4.324;2023-04-16T06:22:40;9.18;;;2.33;;
22435;SDS011;11385;50.822;4.324;2023-04-16T06:25:10;5.22;;;2.37;;
22435;SDS011;11385;50.822;4.324;2023-04-16T06:27:37;10.60;;;2.30;;
22435;SDS011;11385;50.822;4.324;2023-04-16T06:30:05;9.08;;;2.92;;
22435;SDS011;11385;50.822;4.324;2023-04-16T06:32:35;9.75;;;2.60;;
22435;SDS011;11385;50.822;4.324;2023-04-16T06:35:02;10.35;;;2.60;;
22435;SDS011;11385;50.822;4.324;2023-04-16T06:37:30;9.68;;;2.55;;
22435;SDS011;11385;50.822;4.324;2023-04-16T06:39:59;8.38;;;2.52;;
22435;SDS011;11385;50.822;4.324;2023-04-16T06:42:27;7.65;;;2.55;;
22435;SDS011;11385;50.822;4.324;2023-04-16T06:44:54;9.40;;;2.62;;
22435;SDS011;11385;50.822;4.324;2023-04-16T06:47:21;7.35;;;2.85;;
22435;SDS011;11385;50.822;4.324;2023-04-16T06:49:50;9.10;;;2.98;;
22435;SDS011;11385;50.822;4.324;2023-04-16T06:52:19;9.18;;;2.95;;
22435;SDS011;11385;50.822;4.324;2023-04-16T06:54:48;9.23;;;3.40;;
22435;SDS011;11385;50.822;4.324;2023-04-16T06:57:15;6.95;;;3.45;;
22435;SDS011;11385;50.822;4.324;2023-04-16T06:59:43;11.73;;;4.33;;
22435;SDS011;11385;50.822;4.324;2023-04-16T07:02:09;10.93;;;4.30;;
22435;SDS011;11385;50.822;4.324;2023-04-16T07:04:36;12.63;;;4.47;;
22435;SDS011;11385;50.822;4.324;2023-04-16T07:07:03;14.95;;;4.97;;
22435;SDS011;11385;50.822;4.324;2023-04-16T07:09:29;11.65;;;4.75;;
22435;SDS011;11385;50.822;4.324;2023-04-16T07:11:57;10.78;;;3.92;;
22435;SDS011;11385;50.822;4.324;2023-04-16T07:14:24;15.65;;;5.58;;
22435;SDS011;11385;50.822;4.324;2023-04-16T07:16:51;11.57;;;4.95;;
22435;SDS011;11385;50.822;4.324;2023-04-16T07:19:18;11.95;;;5.25;;
22435;SDS011;11385;50.822;4.324;2023-04-16T07:21:45;9.35;;;5.15;;
22435;SDS011;11385;50.822;4.324;2023-04-16T07:24:14;10.53;;;5.30;;
22435;SDS011;11385;50.822;4.324;2023-04-16T07:26:43;14.55;;;5.22;;
22435;SDS011;11385;50.822;4.324;2023-04-16T07:29:09;11.83;;;5.40;;
22435;SDS011;11385;50.822;4.324;2023-04-16T07:31:37;13.13;;;5.65;;
22435;SDS011;11385;50.822;4.324;2023-04-16T07:34:04;10.48;;;5.17;;
22435;SDS011;11385;50.822;4.324;2023-04-16T07:36:36;13.28;;;4.85;;
22435;SDS011;11385;50.822;4.324;2023-04-16T07:39:04;8.90;;;3.98;;
22435;SDS011;11385;50.822;4.324;2023-04-16T07:41:31;10.45;;;4.28;;
22435;SDS011;11385;50.822;4.324;2023-04-16T07:43:58;7.40;;;4.15;;
22435;SDS011;11385;50.822;4.324;2023-04-16T07:46:28;13.95;;;4.60;;
22435;SDS011;11385;50.822;4.324;2023-04-16T07:48:56;12.18;;;4.50;;
22435;SDS011;11385;50.822;4.324;2023-04-16T07:51:22;10.80;;;4.25;;
22435;SDS011;11385;50.822;4.324;2023-04-16T07:53:53;12.93;;;5.08;;
22435;SDS011;11385;50.822;4.324;2023-04-16T07:56:19;11.20;;;4.80;;
22435;SDS011;11385;50.822;4.324;2023-04-16T07:58:46;9.35;;;5.00;;
22435;SDS011;11385;50.822;4.324;2023-04-16T08:01:13;13.50;;;5.12;;
22435;SDS011;11385;50.822;4.324;2023-04-16T08:03:42;12.85;;;6.17;;
22435;SDS011;11385;50.822;4.324;2023-04-16T08:06:10;16.12;;;6.55;;
22435;SDS011;11385;50.822;4.324;2023-04-16T08:08:39;16.35;;;6.33;;
22435;SDS011;11385;50.822;4.324;2023-04-16T08:11:06;14.83;;;6.83;;
22435;SDS011;11385;50.822;4.324;2023-04-16T08:13:34;12.90;;;6.10;;
22435;SDS011;11385;50.822;4.324;2023-04-16T08:16:03;15.65;;;7.10;;
22435;SDS011;11385;50.822;4.324;2023-04-16T08:18:32;17.80;;;7.65;;
22435;SDS011;11385;50.822;4.324;2023-04-16T08:21:00;15.70;;;7.70;;
22435;SDS011;11385;50.822;4.324;2023-04-16T08:23:26;12.82;;;7.70;;
22435;SDS011;11385;50.822;4.324;2023-04-16T08:25:57;15.15;;;7.67;;
22435;SDS011;11385;50.822;4.324;2023-04-16T08:28:23;16.85;;;7.97;;
22435;SDS011;11385;50.822;4.324;2023-04-16T08:30:53;19.48;;;8.00;;
22435;SDS011;11385;50.822;4.324;2023-04-16T08:33:23;14.30;;;8.05;;
22435;SDS011;11385;50.822;4.324;2023-04-16T08:35:50;17.20;;;9.13;;
22435;SDS011;11385;50.822;4.324;2023-04-16T08:38:16;17.02;;;8.53;;
22435;SDS011;11385;50.822;4.324;2023-04-16T08:40:44;18.85;;;8.50;;
22435;SDS011;11385;50.822;4.324;2023-04-16T08:43:13;19.00;;;8.53;;
22435;SDS011;11385;50.822;4.324;2023-04-16T08:45:43;16.65;;;8.73;;
22435;SDS011;11385;50.822;4.324;2023-04-16T08:48:13;17.95;;;7.87;;
22435;SDS011;11385;50.822;4.324;2023-04-16T08:50:42;17.55;;;8.85;;
22435;SDS011;11385;50.822;4.324;2023-04-16T08:53:12;17.32;;;8.08;;
22435;SDS011;11385;50.822;4.324;2023-04-16T08:55:45;15.60;;;7.72;;
22435;SDS011;11385;50.822;4.324;2023-04-16T08:58:17;15.55;;;8.28;;
22435;SDS011;11385;50.822;4.324;2023-04-16T09:00:46;14.68;;;7.72;;
22435;SDS011;11385;50.822;4.324;2023-04-16T09:03:14;15.95;;;7.55;;
22435;SDS011;11385;50.822;4.324;2023-04-16T09:05:42;15.85;;;9.83;;
22435;SDS011;11385;50.822;4.324;2023-04-16T09:08:09;13.80;;;7.90;;
22435;SDS011;11385;50.822;4.324;2023-04-16T09:10:36;13.88;;;8.33;;
22435;SDS011;11385;50.822;4.324;2023-04-16T09:13:03;21.52;;;8.95;;
22435;SDS011;11385;50.822;4.324;2023-04-16T09:15:29;23.92;;;10.60;;
22435;SDS011;11385;50.822;4.324;2023-04-16T09:17:57;14.80;;;8.28;;
22435;SDS011;11385;50.822;4.324;2023-04-16T09:20:25;15.20;;;8.25;;
22435;SDS011;11385;50.822;4.324;2023-04-16T09:22:52;13.43;;;8.25;;
22435;SDS011;11385;50.822;4.324;2023-04-16T09:25:19;18.73;;;9.60;;
22435;SDS011;11385;50.822;4.324;2023-04-16T09:27:49;19.57;;;9.48;;
22435;SDS011;11385;50.822;4.324;2023-04-16T09:30:19;15.25;;;9.05;;
22435;SDS011;11385;50.822;4.324;2023-04-16T09:32:49;17.82;;;9.73;;
22435;SDS011;11385;50.822;4.324;2023-04-16T09:35:19;19.65;;;9.08;;
22435;SDS011;11385;50.822;4.324;2023-04-16T09:37:53;17.62;;;9.98;;
22435;SDS011;11385;50.822;4.324;2023-04-16T09:40:24;16.10;;;8.28;;
22435;SDS011;11385;50.822;4.324;2023-04-16T09:42:52;18.27;;;9.30;;
22435;SDS011;11385;50.822;4.324;2023-04-16T09:45:22;16.45;;;9.03;;
22435;SDS011;11385;50.822;4.324;2023-04-16T09:47:49;16.70;;;9.25;;
22435;SDS011;11385;50.822;4.324;2023-04-16T09:50:17;17.02;;;8.35;;
22435;SDS011;11385;50.822;4.324;2023-04-16T09:52:47;13.55;;;8.35;;
22435;SDS011;11385;50.822;4.324;2023-04-16T09:55:21;20.75;;;7.72;;
22435;SDS011;11385;50.822;4.324;2023-04-16T09:57:48;16.62;;;8.10;;
22435;SDS011;11385;50.822;4.324;2023-04-16T10:00:17;12.60;;;7.50;;
22435;SDS011;11385;50.822;4.324;2023-04-16T10:02:44;13.00;;;7.47;;
22435;SDS011;11385;50.822;4.324;2023-04-16T10:05:12;16.97;;;8.48;;
22435;SDS011;11385;50.822;4.324;2023-04-16T10:10:08;14.83;;;8.28;;
22435;SDS011;11385;50.822;4.324;2023-04-16T10:12:36;16.25;;;8.58;;
22435;SDS011;11385;50.822;4.324;2023-04-16T10:15:04;13.50;;;8.53;;
22435;SDS011;11385;50.822;4.324;2023-04-16T10:17:31;16.25;;;8.18;;
22435;SDS011;11385;50.822;4.324;2023-04-16T10:19:59;17.87;;;8.55;;
22435;SDS011;11385;50.822;4.324;2023-04-16T10:22:27;13.05;;;8.68;;
22435;SDS011;11385;50.822;4.324;2023-04-16T10:24:54;15.13;;;8.95;;
22435;SDS011;11385;50.822;4.324;2023-04-16T10:27:22;12.82;;;8.28;;
22435;SDS011;11385;50.822;4.324;2023-04-16T10:29:49;14.10;;;8.38;;
22435;SDS011;11385;50.822;4.324;2023-04-16T10:32:17;15.35;;;8.80;;
22435;SDS011;11385;50.822;4.324;2023-04-16T10:34:46;20.57;;;10.48;;
22435;SDS011;11385;50.822;4.324;2023-04-16T10:37:14;19.62;;;11.57;;
22435;SDS011;11385;50.822;4.324;2023-04-16T10:39:42;16.95;;;9.35;;
22435;SDS011;11385;50.822;4.324;2023-04-16T10:42:10;16.15;;;9.83;;
22435;SDS011;11385;50.822;4.324;2023-04-16T10:44:39;16.57;;;8.18;;
22435;SDS011;11385;50.822;4.324;2023-04-16T10:47:09;14.58;;;7.70;;
22435;SDS011;11385;50.822;4.324;2023-04-16T10:49:37;15.98;;;7.92;;
22435;SDS011;11385;50.822;4.324;2023-04-16T10:52:07;15.23;;;7.40;;
22435;SDS011;11385;50.822;4.324;2023-04-16T10:54:37;15.20;;;7.55;;
22435;SDS011;11385;50.822;4.324;2023-04-16T10:57:06;12.78;;;7.25;;
22435;SDS011;11385;50.822;4.324;2023-04-16T10:59:35;12.58;;;6.92;;
22435;SDS011;11385;50.822;4.324;2023-04-16T11:02:07;13.43;;;7.58;;
22435;SDS011;11385;50.822;4.324;2023-04-16T11:04:37;12.23;;;6.78;;
22435;SDS011;11385;50.822;4.324;2023-04-16T11:07:15;14.60;;;7.58;;
22435;SDS011;11385;50.822;4.324;2023-04-16T11:09:51;11.65;;;7.45;;
22435;SDS011;11385;50.822;4.324;2023-04-16T11:12:20;12.63;;;7.25;;
22435;SDS011;11385;50.822;4.324;2023-04-16T11:14:53;17.25;;;7.22;;
22435;SDS011;11385;50.822;4.324;2023-04-16T11:17:22;15.83;;;7.30;;
22435;SDS011;11385;50.822;4.324;2023-04-16T11:20:01;14.38;;;8.63;;
22435;SDS011;11385;50.822;4.324;2023-04-16T11:22:30;18.32;;;8.73;;
22435;SDS011;11385;50.822;4.324;2023-04-16T11:25:01;14.20;;;8.08;;
22435;SDS011;11385;50.822;4.324;2023-04-16T11:27:29;14.50;;;8.68;;
22435;SDS011;11385;50.822;4.324;2023-04-16T11:29:57;15.43;;;8.93;;
22435;SDS011;11385;50.822;4.324;2023-04-16T11:32:29;15.60;;;7.85;;
22435;SDS011;11385;50.822;4.324;2023-04-16T11:34:57;14.58;;;8.35;;
22435;SDS011;11385;50.822;4.324;2023-04-16T11:39:59;15.40;;;7.70;;
22435;SDS011;11385;50.822;4.324;2023-04-16T11:42:26;13.53;;;7.55;;
22435;SDS011;11385;50.822;4.324;2023-04-16T11:44:54;15.68;;;6.25;;
22435;SDS011;11385;50.822;4.324;2023-04-16T11:47:22;14.43;;;6.80;;
22435;SDS011;11385;50.822;4.324;2023-04-16T11:49:50;14.00;;;7.35;;
22435;SDS011;11385;50.822;4.324;2023-04-16T11:54:52;15.72;;;8.25;;
22435;SDS011;11385;50.822;4.324;2023-04-16T11:57:23;22.20;;;8.20;;
22435;SDS011;11385;50.822;4.324;2023-04-16T11:59:52;11.35;;;7.45;;
22435;SDS011;11385;50.822;4.324;2023-04-16T12:04:58;13.70;;;7.95;;
22435;SDS011;11385;50.822;4.324;2023-04-16T12:07:25;16.17;;;7.90;;
22435;SDS011;11385;50.822;4.324;2023-04-16T12:10:02;14.03;;;8.17;;
22435;SDS011;11385;50.822;4.324;2023-04-16T12:12:36;17.62;;;9.28;;
22435;SDS011;11385;50.822;4.324;2023-04-16T12:15:04;17.52;;;8.93;;
22435;SDS011;11385;50.822;4.324;2023-04-16T12:17:32;18.55;;;10.15;;
22435;SDS011;11385;50.822;4.324;2023-04-16T12:20:00;15.48;;;9.20;;
22435;SDS011;11385;50.822;4.324;2023-04-16T12:22:31;18.23;;;9.68;;
22435;SDS011;11385;50.822;4.324;2023-04-16T12:25:01;16.42;;;9.23;;
22435;SDS011;11385;50.822;4.324;2023-04-16T12:30:13;17.12;;;8.88;;
22435;SDS011;11385;50.822;4.324;2023-04-16T12:32:41;18.42;;;10.00;;
22435;SDS011;11385;50.822;4.324;2023-04-16T12:35:10;21.20;;;9.93;;
22435;SDS011;11385;50.822;4.324;2023-04-16T12:37:37;17.70;;;9.58;;
22435;SDS011;11385;50.822;4.324;2023-04-16T12:40:05;17.15;;;8.20;;
22435;SDS011;11385;50.822;4.324;2023-04-16T12:42:33;15.13;;;9.03;;
22435;SDS011;11385;50.822;4.324;2023-04-16T12:45:02;17.98;;;9.90;;
22435;SDS011;11385;50.822;4.324;2023-04-16T12:47:30;16.93;;;9.05;;
22435;SDS011;11385;50.822;4.324;2023-04-16T12:49:57;13.50;;;7.97;;
22435;SDS011;11385;50.822;4.324;2023-04-16T12:52:25;17.05;;;9.18;;
22435;SDS011;11385;50.822;4.324;2023-04-16T12:55:02;15.13;;;9.50;;
22435;SDS011;11385;50.822;4.324;2023-04-16T12:57:29;16.90;;;10.00;;
22435;SDS011;11385;50.822;4.324;2023-04-16T12:59:57;14.43;;;8.73;;
22435;SDS011;11385;50.822;4.324;2023-04-16T13:02:24;17.37;;;10.03;;
22435;SDS011;11385;50.822;4.324;2023-04-16T13:04:51;18.75;;;10.43;;
22435;SDS011;11385;50.822;4.324;2023-04-16T13:07:18;17.90;;;9.40;;
22435;SDS011;11385;50.822;4.324;2023-04-16T13:09:48;15.00;;;8.73;;
22435;SDS011;11385;50.822;4.324;2023-04-16T13:12:15;14.35;;;7.97;;
22435;SDS011;11385;50.822;4.324;2023-04-16T13:14:42;15.63;;;9.68;;
22435;SDS011;11385;50.822;4.324;2023-04-16T13:17:09;15.13;;;8.88;;
22435;SDS011;11385;50.822;4.324;2023-04-16T13:19:36;15.90;;;9.30;;
22435;SDS011;11385;50.822;4.324;2023-04-16T13:22:03;14.00;;;9.15;;
22435;SDS011;11385;50.822;4.324;2023-04-16T13:24:30;19.52;;;10.75;;
22435;SDS011;11385;50.822;4.324;2023-04-16T13:26:58;14.90;;;9.13;;
22435;SDS011;11385;50.822;4.324;2023-04-16T13:29:25;16.87;;;9.83;;
22435;SDS011;11385;50.822;4.324;2023-04-16T13:31:52;18.67;;;10.13;;
22435;SDS011;11385;50.822;4.324;2023-04-16T13:34:22;16.20;;;10.03;;
22435;SDS011;11385;50.822;4.324;2023-04-16T13:37:16;17.48;;;10.35;;
22435;SDS011;11385;50.822;4.324;2023-04-16T13:39:43;17.48;;;9.90;;
22435;SDS011;11385;50.822;4.324;2023-04-16T13:42:10;15.78;;;9.38;;
22435;SDS011;11385;50.822;4.324;2023-04-16T13:44:36;17.05;;;10.93;;
22435;SDS011;11385;50.822;4.324;2023-04-16T13:47:04;17.52;;;10.03;;
22435;SDS011;11385;50.822;4.324;2023-04-16T13:49:32;17.37;;;11.20;;
22435;SDS011;11385;50.822;4.324;2023-04-16T13:51:59;28.57;;;18.15;;
22435;SDS011;11385;50.822;4.324;2023-04-16T13:54:27;15.30;;;10.65;;
22435;SDS011;11385;50.822;4.324;2023-04-16T13:56:53;16.37;;;9.50;;
22435;SDS011;11385;50.822;4.324;2023-04-16T13:59:23;13.62;;;9.18;;
22435;SDS011;11385;50.822;4.324;2023-04-16T14:01:49;14.03;;;9.18;;
22435;SDS011;11385;50.822;4.324;2023-04-16T14:04:16;15.80;;;9.73;;
22435;SDS011;11385;50.822;4.324;2023-04-16T14:06:43;18.98;;;10.38;;
22435;SDS011;11385;50.822;4.324;2023-04-16T14:09:10;16.23;;;10.35;;
22435;SDS011;11385;50.822;4.324;2023-04-16T14:11:38;18.87;;;9.93;;
22435;SDS011;11385;50.822;4.324;2023-04-16T14:14:05;15.58;;;9.25;;
22435;SDS011;11385;50.822;4.324;2023-04-16T14:16:35;14.65;;;9.20;;
22435;SDS011;11385;50.822;4.324;2023-04-16T14:19:02;18.30;;;9.68;;
22435;SDS011;11385;50.822;4.324;2023-04-16T14:21:29;18.40;;;9.33;;
22435;SDS011;11385;50.822;4.324;2023-04-16T14:23:56;14.53;;;8.93;;
22435;SDS011;11385;50.822;4.324;2023-04-16T14:26:22;16.10;;;9.53;;
22435;SDS011;11385;50.822;4.324;2023-04-16T14:28:49;29.67;;;18.17;;
22435;SDS011;11385;50.822;4.324;2023-04-16T14:31:17;17.10;;;9.53;;
22435;SDS011;11385;50.822;4.324;2023-04-16T14:33:44;14.73;;;9.23;;
22435;SDS011;11385;50.822;4.324;2023-04-16T14:36:11;15.53;;;9.90;;
22435;SDS011;11385;50.822;4.324;2023-04-16T14:38:38;16.45;;;8.55;;
22435;SDS011;11385;50.822;4.324;2023-04-16T14:41:08;14.40;;;8.00;;
22435;SDS011;11385;50.822;4.324;2023-04-16T14:43:37;16.05;;;9.08;;
22435;SDS011;11385;50.822;4.324;2023-04-16T14:46:05;15.38;;;9.00;;
22435;SDS011;11385;50.822;4.324;2023-04-16T14:48:32;14.65;;;10.13;;
22435;SDS011;11385;50.822;4.324;2023-04-16T14:50:59;17.42;;;10.45;;
22435;SDS011;11385;50.822;4.324;2023-04-16T14:53:41;17.27;;;10.63;;
22435;SDS011;11385;50.822;4.324;2023-04-16T14:56:12;14.63;;;9.05;;
22435;SDS011;11385;50.822;4.324;2023-04-16T14:58:39;16.35;;;9.60;;
22435;SDS011;11385;50.822;4.324;2023-04-16T15:01:07;16.25;;;10.75;;
22435;SDS011;11385;50.822;4.324;2023-04-16T15:03:34;15.90;;;9.98;;